sensor_id;sensor_type;location;lat;lon;timestamp;pressure;altitude;pressure_sealevel;temperature;humidity
34586;BME280;20816;50.950;11.108;2023-02-20T00:00:30;99171.41;;;6.56;100.00
34586;BME280;20816;50.950;11.108;2023-02-20T00:02:58;99180.97;;;6.53;100.00
34586;BME280;20816;50.950;11.108;2023-02-20T00:05:25;99181.78;;;6.42;100.00
34586;BME280;20816;50.950;11.108;2023-02-20T00:07:51;99174.84;;;6.49;100.00
34586;BME280;20816;50.950;11.108;2023-02-20T00:10:18;99170.56;;;6.62;100.00
34586;BME280;20816;50.950;11.108;2023-02-20T00:12:45;99167.03;;;6.57;100.00
34586;BME280;20816;50.950;11.108;2023-02-20T00:15:16;99159.19;;;6.47;100.00
34586;BME280;20816;50.950;11.108;2023-02-20T00:17:45;99164.41;;;6.49;100.00
34586;BME280;20816;50.950;11.108;2023-02-20T00:20:16;99174.00;;;6.55;100.00
34586;BME280;20816;50.950;11.108;2023-02-20T00:22:43;99176.63;;;6.59;100.00
34586;BME280;20816;50.950;11.108;2023-02-20T00:25:10;99184.44;;;6.58;100.00
34586;BME280;20816;50.950;11.108;2023-02-20T00:27:37;99185.31;;;6.58;100.00
34586;BME280;20816;50.950;11.108;2023-02-20T00:30:04;99177.47;;;6.51;100.00
34586;BME280;20816;50.950;11.108;2023-02-20T00:32:31;99185.34;;;6.60;100.00
34586;BME280;20816;50.950;11.108;2023-02-20T00:34:57;99183.63;;;6.60;100.00
34586;BME280;20816;50.950;11.108;2023-02-20T00:37:24;99181.84;;;6.58;100.00
34586;BME280;20816;50.950;11.108;2023-02-20T00:39:51;99170.53;;;6.54;100.00
34586;BME280;20816;50.950;11.108;2023-02-20T00:42:17;99165.31;;;6.53;100.00
34586;BME280;20816;50.950;11.108;2023-02-20T00:44:44;99174.88;;;6.55;100.00
34586;BME280;20816;50.950;11.108;2023-02-20T00:47:11;99175.75;;;6.53;100.00
34586;BME280;20816;50.950;11.108;2023-02-20T00:49:37;99170.53;;;6.56;100.00
34586;BME280;20816;50.950;11.108;2023-02-20T00:52:04;99157.44;;;6.46;100.00
34586;BME280;20816;50.950;11.108;2023-02-20T00:54:31;99154.81;;;6.46;100.00
34586;BME280;20816;50.950;11.108;2023-02-20T00:56:57;99154.81;;;6.43;100.00
34586;BME280;20816;50.950;11.108;2023-02-20T00:59:24;99147.84;;;6.42;100.00
34586;BME280;20816;50.950;11.108;2023-02-20T01:01:50;99144.34;;;6.37;100.00
34586;BME280;20816;50.950;11.108;2023-02-20T01:04:18;99147.78;;;6.24;100.00
34586;BME280;20816;50.950;11.108;2023-02-20T01:06:45;99146.88;;;6.17;100.00
34586;BME280;20816;50.950;11.108;2023-02-20T01:09:11;99157.25;;;6.04;100.00
34586;BME280;20816;50.950;11.108;2023-02-20T01:11:40;99156.38;;;6.05;100.00
34586;BME280;20816;50.950;11.108;2023-02-20T01:14:07;99154.59;;;5.98;100.00
34586;BME280;20816;50.950;11.108;2023-02-20T01:16:34;99168.53;;;6.00;100.00
34586;BME280;20816;50.950;11.108;2023-02-20T01:19:01;99166.75;;;5.93;100.00
34586;BME280;20816;50.950;11.108;2023-02-20T01:21:28;99164.13;;;5.91;100.00
34586;BME280;20816;50.950;11.108;2023-02-20T01:23:55;99164.22;;;6.06;100.00
34586;BME280;20816;50.950;11.108;2023-02-20T01:26:22;99158.13;;;6.06;100.00
34586;BME280;20816;50.950;11.108;2023-02-20T01:28:48;99159.00;;;6.06;100.00
34586;BME280;20816;50.950;11.108;2023-02-20T01:31:15;99152.09;;;6.13;100.00
34586;BME280;20816;50.950;11.108;2023-02-20T01:33:42;99155.53;;;6.04;100.00
34586;BME280;20816;50.950;11.108;2023-02-20T01:36:09;99145.94;;;6.05;100.00
34586;BME280;20816;50.950;11.108;2023-02-20T01:38:39;99127.69;;;6.08;100.00
34586;BME280;20816;50.950;11.108;2023-02-20T01:41:08;99127.69;;;6.06;100.00
34586;BME280;20816;50.950;11.108;2023-02-20T01:43:35;99122.47;;;6.06;100.00
34586;BME280;20816;50.950;11.108;2023-02-20T01:49:05;99125.94;;;6.04;100.00
34586;BME280;20816;50.950;11.108;2023-02-20T01:51:39;99119.81;;;5.96;100.00
34586;BME280;20816;50.950;11.108;2023-02-20T01:54:09;99105.81;;;5.87;100.00
34586;BME280;20816;50.950;11.108;2023-02-20T01:56:36;99102.34;;;5.88;100.00
34586;BME280;20816;50.950;11.108;2023-02-20T01:59:05;99106.63;;;5.77;100.00
34586;BME280;20816;50.950;11.108;2023-02-20T02:01:34;99109.31;;;5.86;100.00
34586;BME280;20816;50.950;11.108;2023-02-20T02:04:03;99122.38;;;5.93;100.00
34586;BME280;20816;50.950;11.108;2023-02-20T02:06:33;99115.41;;;5.88;100.00
34586;BME280;20816;50.950;11.108;2023-02-20T02:09:08;99108.56;;;6.03;100.00
34586;BME280;20816;50.950;11.108;2023-02-20T02:11:37;99105.94;;;6.09;100.00
34586;BME280;20816;50.950;11.108;2023-02-20T02:14:04;99109.38;;;5.99;100.00
34586;BME280;20816;50.950;11.108;2023-02-20T02:30:47;99112.88;;;6.02;100.00
34586;BME280;20816;50.950;11.108;2023-02-20T02:38:46;99119.81;;;6.02;100.00
34586;BME280;20816;50.950;11.108;2023-02-20T02:41:21;99103.28;;;6.01;100.00
34586;BME280;20816;50.950;11.108;2023-02-20T02:44:21;99100.72;;;6.03;100.00
34586;BME280;20816;50.950;11.108;2023-02-20T02:47:05;99095.47;;;5.97;100.00
34586;BME280;20816;50.950;11.108;2023-02-20T02:49:54;99096.22;;;5.83;100.00
34586;BME280;20816;50.950;11.108;2023-02-20T02:52:25;99097.09;;;5.82;100.00
34586;BME280;20816;50.950;11.108;2023-02-20T02:55:21;99100.53;;;5.77;100.00
34586;BME280;20816;50.950;11.108;2023-02-20T02:57:48;99100.50;;;5.69;100.00
34586;BME280;20816;50.950;11.108;2023-02-20T03:00:18;99097.00;;;5.64;100.00
34586;BME280;20816;50.950;11.108;2023-02-20T03:03:05;99095.31;;;5.72;100.00
34586;BME280;20816;50.950;11.108;2023-02-20T03:05:46;99085.66;;;5.60;100.00
34586;BME280;20816;50.950;11.108;2023-02-20T03:08:29;99087.44;;;5.65;100.00
34586;BME280;20816;50.950;11.108;2023-02-20T03:11:03;99089.16;;;5.61;100.00
34586;BME280;20816;50.950;11.108;2023-02-20T03:13:36;99087.41;;;5.55;100.00
34586;BME280;20816;50.950;11.108;2023-02-20T03:16:29;99086.56;;;5.64;100.00
34586;BME280;20816;50.950;11.108;2023-02-20T03:18:59;99092.59;;;5.54;100.00
34586;BME280;20816;50.950;11.108;2023-02-20T03:21:27;99093.38;;;5.44;100.00
34586;BME280;20816;50.950;11.108;2023-02-20T03:23:58;99092.56;;;5.49;100.00
34586;BME280;20816;50.950;11.108;2023-02-20T03:26:30;99093.47;;;5.59;100.00
34586;BME280;20816;50.950;11.108;2023-02-20T03:29:07;99085.66;;;5.56;100.00
34586;BME280;20816;50.950;11.108;2023-02-20T03:31:47;99088.25;;;5.56;100.00
34586;BME280;20816;50.950;11.108;2023-02-20T03:34:36;99086.47;;;5.52;100.00
34586;BME280;20816;50.950;11.108;2023-02-20T03:37:25;99095.22;;;5.60;100.00
34586;BME280;20816;50.950;11.108;2023-02-20T03:40:13;99085.69;;;5.62;100.00
34586;BME280;20816;50.950;11.108;2023-02-20T03:43:03;99083.09;;;5.62;100.00
34586;BME280;20816;50.950;11.108;2023-02-20T03:45:47;99077.88;;;5.65;100.00
34586;BME280;20816;50.950;11.108;2023-02-20T03:48:22;99067.41;;;5.59;100.00
34586;BME280;20816;50.950;11.108;2023-02-20T03:50:51;99076.09;;;5.61;100.00
34586;BME280;20816;50.950;11.108;2023-02-20T03:53:38;99075.28;;;5.63;100.00
34586;BME280;20816;50.950;11.108;2023-02-20T03:56:09;99083.97;;;5.64;100.00
34586;BME280;20816;50.950;11.108;2023-02-20T03:58:41;99078.66;;;5.53;100.00
34586;BME280;20816;50.950;11.108;2023-02-20T04:01:09;99083.00;;;5.48;100.00
34586;BME280;20816;50.950;11.108;2023-02-20T04:03:39;99089.94;;;5.48;100.00
34586;BME280;20816;50.950;11.108;2023-02-20T04:06:09;99083.88;;;5.53;100.00
34586;BME280;20816;50.950;11.108;2023-02-20T04:08:51;99089.09;;;5.52;100.00
34586;BME280;20816;50.950;11.108;2023-02-20T04:11:21;99081.25;;;5.46;100.00
34586;BME280;20816;50.950;11.108;2023-02-20T04:13:50;99081.31;;;5.55;100.00
34586;BME280;20816;50.950;11.108;2023-02-20T04:16:20;99087.34;;;5.49;100.00
34586;BME280;20816;50.950;11.108;2023-02-20T04:18:47;99086.47;;;5.46;100.00
34586;BME280;20816;50.950;11.108;2023-02-20T04:21:28;99099.50;;;5.49;100.00
34586;BME280;20816;50.950;11.108;2023-02-20T04:24:27;99092.56;;;5.48;100.00
34586;BME280;20816;50.950;11.108;2023-02-20T04:26:55;99101.25;;;5.48;100.00
34586;BME280;20816;50.950;11.108;2023-02-20T04:29:23;99105.59;;;5.48;100.00
34586;BME280;20816;50.950;11.108;2023-02-20T04:31:49;99106.53;;;5.57;100.00
34586;BME280;20816;50.950;11.108;2023-02-20T04:34:16;99098.69;;;5.56;100.00
34586;BME280;20816;50.950;11.108;2023-02-20T04:36:43;99096.97;;;5.58;100.00
34586;BME280;20816;50.950;11.108;2023-02-20T04:39:10;99102.16;;;5.58;100.00
34586;BME280;20816;50.950;11.108;2023-02-20T04:41:36;99107.31;;;5.46;100.00
34586;BME280;20816;50.950;11.108;2023-02-20T04:44:03;99117.78;;;5.52;100.00
34586;BME280;20816;50.950;11.108;2023-02-20T04:46:48;99117.75;;;5.49;100.00
34586;BME280;20816;50.950;11.108;2023-02-20T04:49:15;99117.81;;;5.55;100.00
34586;BME280;20816;50.950;11.108;2023-02-20T04:51:42;99122.09;;;5.50;100.00
34586;BME280;20816;50.950;11.108;2023-02-20T04:54:08;99133.44;;;5.55;100.00
34586;BME280;20816;50.950;11.108;2023-02-20T04:56:35;99123.84;;;5.52;100.00
34586;BME280;20816;50.950;11.108;2023-02-20T04:59:02;99121.28;;;5.57;100.00
34586;BME280;20816;50.950;11.108;2023-02-20T05:01:28;99116.06;;;5.57;100.00
34586;BME280;20816;50.950;11.108;2023-02-20T05:03:55;99102.22;;;5.67;100.00
34586;BME280;20816;50.950;11.108;2023-02-20T05:06:21;99080.44;;;5.60;100.00
34586;BME280;20816;50.950;11.108;2023-02-20T05:08:48;99057.84;;;5.61;100.00
34586;BME280;20816;50.950;11.108;2023-02-20T05:11:16;99047.47;;;5.64;100.00
34586;BME280;20816;50.950;11.108;2023-02-20T05:13:42;99056.16;;;5.63;100.00
34586;BME280;20816;50.950;11.108;2023-02-20T05:16:09;99049.19;;;5.70;100.00
34586;BME280;20816;50.950;11.108;2023-02-20T05:18:36;99044.88;;;5.70;100.00
34586;BME280;20816;50.950;11.108;2023-02-20T05:21:03;99037.91;;;5.66;100.00
34586;BME280;20816;50.950;11.108;2023-02-20T05:23:48;99028.34;;;5.65;100.00
34586;BME280;20816;50.950;11.108;2023-02-20T05:26:20;99024.88;;;5.68;100.00
34586;BME280;20816;50.950;11.108;2023-02-20T05:28:47;99020.53;;;5.71;100.00
34586;BME280;20816;50.950;11.108;2023-02-20T05:31:13;99011.78;;;5.61;100.00
34586;BME280;20816;50.950;11.108;2023-02-20T05:33:43;99021.38;;;5.67;100.00
34586;BME280;20816;50.950;11.108;2023-02-20T05:36:09;99026.59;;;5.67;100.00
34586;BME280;20816;50.950;11.108;2023-02-20T05:38:36;99019.69;;;5.71;100.00
34586;BME280;20816;50.950;11.108;2023-02-20T05:41:03;99013.59;;;5.73;100.00
34586;BME280;20816;50.950;11.108;2023-02-20T05:43:30;99010.97;;;5.78;100.00
34586;BME280;20816;50.950;11.108;2023-02-20T05:45:57;99014.47;;;5.71;100.00
34586;BME280;20816;50.950;11.108;2023-02-20T05:48:24;99011.88;;;5.81;100.00
34586;BME280;20816;50.950;11.108;2023-02-20T05:50:50;99013.66;;;5.88;100.00
34586;BME280;20816;50.950;11.108;2023-02-20T05:53:19;98995.38;;;5.84;100.00
34586;BME280;20816;50.950;11.108;2023-02-20T05:55:46;99015.38;;;5.83;100.00
34586;BME280;20816;50.950;11.108;2023-02-20T05:58:12;99018.84;;;5.85;100.00
34586;BME280;20816;50.950;11.108;2023-02-20T06:00:39;99000.59;;;5.81;100.00
34586;BME280;20816;50.950;11.108;2023-02-20T06:03:07;98982.34;;;5.90;100.00
34586;BME280;20816;50.950;11.108;2023-02-20T06:05:34;98981.47;;;5.80;100.00
34586;BME280;20816;50.950;11.108;2023-02-20T06:08:01;98975.38;;;5.84;100.00
34586;BME280;20816;50.950;11.108;2023-02-20T06:10:28;98973.66;;;5.89;100.00
34586;BME280;20816;50.950;11.108;2023-02-20T06:12:54;98978.06;;;5.95;100.00
34586;BME280;20816;50.950;11.108;2023-02-20T06:15:21;98981.47;;;5.89;100.00
34586;BME280;20816;50.950;11.108;2023-02-20T06:17:48;98987.63;;;5.99;100.00
34586;BME280;20816;50.950;11.108;2023-02-20T06:20:15;98977.19;;;6.01;100.00
34586;BME280;20816;50.950;11.108;2023-02-20T06:22:42;98970.22;;;6.00;100.00
34586;BME280;20816;50.950;11.108;2023-02-20T06:25:08;98966.75;;;5.99;99.75
34586;BME280;20816;50.950;11.108;2023-02-20T06:27:39;98977.22;;;6.04;100.00
34586;BME280;20816;50.950;11.108;2023-02-20T06:30:06;98977.22;;;6.10;99.79
34586;BME280;20816;50.950;11.108;2023-02-20T06:32:33;98958.09;;;6.14;99.93
34586;BME280;20816;50.950;11.108;2023-02-20T06:35:00;98965.06;;;6.15;99.68
34586;BME280;20816;50.950;11.108;2023-02-20T06:37:27;98970.25;;;6.09;99.96
34586;BME280;20816;50.950;11.108;2023-02-20T06:39:53;98970.22;;;6.00;100.00
34586;BME280;20816;50.950;11.108;2023-02-20T06:42:21;98964.16;;;6.10;100.00
34586;BME280;20816;50.950;11.108;2023-02-20T06:44:48;98963.28;;;6.06;100.00
34586;BME280;20816;50.950;11.108;2023-02-20T06:47:15;98968.50;;;6.08;100.00
34586;BME280;20816;50.950;11.108;2023-02-20T06:49:41;98953.75;;;6.14;99.60
34586;BME280;20816;50.950;11.108;2023-02-20T06:52:09;98972.00;;;6.16;99.71
34586;BME280;20816;50.950;11.108;2023-02-20T06:54:36;98952.00;;;6.15;99.47
34586;BME280;20816;50.950;11.108;2023-02-20T06:57:02;98958.09;;;6.23;98.95
34586;BME280;20816;50.950;11.108;2023-02-20T06:59:29;98957.25;;;6.30;98.77
34586;BME280;20816;50.950;11.108;2023-02-20T07:01:56;98951.16;;;6.31;98.75
34586;BME280;20816;50.950;11.108;2023-02-20T07:04:24;98949.41;;;6.33;98.53
34586;BME280;20816;50.950;11.108;2023-02-20T07:06:54;98946.78;;;6.35;98.26
34586;BME280;20816;50.950;11.108;2023-02-20T07:09:21;98935.50;;;6.31;98.95
34586;BME280;20816;50.950;11.108;2023-02-20T07:11:48;98938.09;;;6.37;98.63
34586;BME280;20816;50.950;11.108;2023-02-20T07:14:16;98932.00;;;6.41;99.03
34586;BME280;20816;50.950;11.108;2023-02-20T07:16:43;98928.50;;;6.42;98.99
34586;BME280;20816;50.950;11.108;2023-02-20T07:19:10;98941.59;;;6.52;98.67
34586;BME280;20816;50.950;11.108;2023-02-20T07:21:37;98939.84;;;6.54;98.34
34586;BME280;20816;50.950;11.108;2023-02-20T07:24:05;98941.56;;;6.56;98.46
34586;BME280;20816;50.950;11.108;2023-02-20T07:26:32;98925.91;;;6.62;98.26
34586;BME280;20816;50.950;11.108;2023-02-20T07:28:58;98930.25;;;6.69;97.79
34586;BME280;20816;50.950;11.108;2023-02-20T07:31:28;98929.38;;;6.67;98.22
34586;BME280;20816;50.950;11.108;2023-02-20T07:33:56;98940.72;;;6.77;97.12
34586;BME280;20816;50.950;11.108;2023-02-20T07:36:23;98933.72;;;6.82;97.19
34586;BME280;20816;50.950;11.108;2023-02-20T07:38:57;98934.56;;;6.92;96.66
34586;BME280;20816;50.950;11.108;2023-02-20T07:41:26;98925.00;;;6.89;97.31
34586;BME280;20816;50.950;11.108;2023-02-20T07:43:57;98911.03;;;6.98;96.41
34586;BME280;20816;50.950;11.108;2023-02-20T07:46:24;98912.72;;;7.16;95.44
34586;BME280;20816;50.950;11.108;2023-02-20T07:48:51;98910.13;;;7.16;95.23
34586;BME280;20816;50.950;11.108;2023-02-20T07:51:18;98911.81;;;7.24;94.09
34586;BME280;20816;50.950;11.108;2023-02-20T07:53:50;98910.91;;;7.39;94.92
34586;BME280;20816;50.950;11.108;2023-02-20T07:56:17;98912.66;;;7.37;95.43
34586;BME280;20816;50.950;11.108;2023-02-20T07:58:45;98906.56;;;7.41;95.65
34586;BME280;20816;50.950;11.108;2023-02-20T08:01:12;98900.44;;;7.39;94.00
34586;BME280;20816;50.950;11.108;2023-02-20T08:03:39;98910.84;;;7.48;93.05
34586;BME280;20816;50.950;11.108;2023-02-20T08:06:06;98892.56;;;7.50;92.35
34586;BME280;20816;50.950;11.108;2023-02-20T08:08:33;98900.38;;;7.54;92.34
34586;BME280;20816;50.950;11.108;2023-02-20T08:11:00;98896.00;;;7.56;93.01
34586;BME280;20816;50.950;11.108;2023-02-20T08:13:35;98897.69;;;7.65;92.73
34586;BME280;20816;50.950;11.108;2023-02-20T08:16:02;98899.50;;;7.58;92.60
34586;BME280;20816;50.950;11.108;2023-02-20T08:18:29;98894.25;;;7.62;91.66
34586;BME280;20816;50.950;11.108;2023-02-20T08:20:56;98892.47;;;7.68;92.18
34586;BME280;20816;50.950;11.108;2023-02-20T08:23:23;98895.00;;;7.79;89.60
34586;BME280;20816;50.950;11.108;2023-02-20T08:25:50;98888.00;;;7.90;88.63
34586;BME280;20816;50.950;11.108;2023-02-20T08:28:18;98882.81;;;7.79;87.48
34586;BME280;20816;50.950;11.108;2023-02-20T08:30:45;98886.25;;;7.86;88.05
34586;BME280;20816;50.950;11.108;2023-02-20T08:33:12;98891.50;;;7.83;88.15
34586;BME280;20816;50.950;11.108;2023-02-20T08:35:40;98888.00;;;7.90;87.59
34586;BME280;20816;50.950;11.108;2023-02-20T08:38:28;98882.72;;;7.88;87.63
34586;BME280;20816;50.950;11.108;2023-02-20T08:40:56;98884.50;;;7.86;87.82
34586;BME280;20816;50.950;11.108;2023-02-20T08:43:23;98877.50;;;7.93;87.62
34586;BME280;20816;50.950;11.108;2023-02-20T08:45:53;98875.69;;;8.01;87.11
34586;BME280;20816;50.950;11.108;2023-02-20T08:48:20;98861.72;;;8.02;87.29
34586;BME280;20816;50.950;11.108;2023-02-20T08:50:47;98876.50;;;8.09;86.23
34586;BME280;20816;50.950;11.108;2023-02-20T08:53:14;98872.06;;;8.18;87.82
34586;BME280;20816;50.950;11.108;2023-02-20T08:55:42;98865.88;;;8.26;86.39
34586;BME280;20816;50.950;11.108;2023-02-20T08:58:09;98863.25;;;8.31;85.29
34586;BME280;20816;50.950;11.108;2023-02-20T09:00:36;98845.75;;;8.39;84.91
34586;BME280;20816;50.950;11.108;2023-02-20T09:03:03;98855.38;;;8.35;84.92
34586;BME280;20816;50.950;11.108;2023-02-20T09:05:33;98846.59;;;8.41;84.55
34586;BME280;20816;50.950;11.108;2023-02-20T09:08:03;98838.66;;;8.50;84.37
34586;BME280;20816;50.950;11.108;2023-02-20T09:10:30;98835.97;;;8.56;83.96
34586;BME280;20816;50.950;11.108;2023-02-20T09:12:57;98831.63;;;8.55;84.53
34586;BME280;20816;50.950;11.108;2023-02-20T09:15:23;98833.13;;;8.76;83.46
34586;BME280;20816;50.950;11.108;2023-02-20T09:17:52;98817.44;;;8.75;83.25
34586;BME280;20816;50.950;11.108;2023-02-20T09:20:20;98809.50;;;8.81;83.60
34586;BME280;20816;50.950;11.108;2023-02-20T09:22:48;98812.13;;;8.81;82.69
34586;BME280;20816;50.950;11.108;2023-02-20T09:25:16;98814.63;;;8.91;83.84
34586;BME280;20816;50.950;11.108;2023-02-20T09:27:43;98810.19;;;8.95;83.06
34586;BME280;20816;50.950;11.108;2023-02-20T09:30:15;98803.09;;;9.03;83.55
34586;BME280;20816;50.950;11.108;2023-02-20T09:32:48;98811.00;;;9.02;83.70
34586;BME280;20816;50.950;11.108;2023-02-20T09:35:27;98811.84;;;9.05;83.72
34586;BME280;20816;50.950;11.108;2023-02-20T09:37:54;98808.34;;;9.03;83.91
34586;BME280;20816;50.950;11.108;2023-02-20T09:40:22;98820.47;;;9.12;82.89
34586;BME280;20816;50.950;11.108;2023-02-20T09:45:43;98820.28;;;9.27;83.86
34586;BME280;20816;50.950;11.108;2023-02-20T09:51:12;98829.88;;;9.28;83.49
34586;BME280;20816;50.950;11.108;2023-02-20T09:53:59;98828.06;;;9.33;83.41
34586;BME280;20816;50.950;11.108;2023-02-20T09:56:31;98828.84;;;9.41;82.43
34586;BME280;20816;50.950;11.108;2023-02-20T09:59:11;98832.31;;;9.45;83.01
34586;BME280;20816;50.950;11.108;2023-02-20T10:01:51;98820.22;;;9.32;83.58
34586;BME280;20816;50.950;11.108;2023-02-20T10:04:21;98819.34;;;9.33;83.12
34586;BME280;20816;50.950;11.108;2023-02-20T10:06:53;98814.94;;;9.35;82.77
34586;BME280;20816;50.950;11.108;2023-02-20T10:09:23;98809.78;;;9.27;83.64
34586;BME280;20816;50.950;11.108;2023-02-20T10:17:30;98809.66;;;9.38;82.49
34586;BME280;20816;50.950;11.108;2023-02-20T10:25:34;98827.88;;;9.48;83.27
34586;BME280;20816;50.950;11.108;2023-02-20T10:28:13;98833.00;;;9.58;82.30
34586;BME280;20816;50.950;11.108;2023-02-20T10:30:47;98830.19;;;9.71;82.58
34586;BME280;20816;50.950;11.108;2023-02-20T10:33:23;98825.59;;;9.84;81.50
34586;BME280;20816;50.950;11.108;2023-02-20T10:36:17;98810.31;;;10.09;81.81
34586;BME280;20816;50.950;11.108;2023-02-20T10:41:53;98771.09;;;10.95;79.40
34586;BME280;20816;50.950;11.108;2023-02-20T10:47:29;98769.34;;;11.36;76.38
34586;BME280;20816;50.950;11.108;2023-02-20T10:50:22;98764.94;;;11.37;75.95
34586;BME280;20816;50.950;11.108;2023-02-20T10:52:55;98751.94;;;11.29;75.82
34586;BME280;20816;50.950;11.108;2023-02-20T10:55:57;98734.38;;;11.30;76.42
34586;BME280;20816;50.950;11.108;2023-02-20T10:58:35;98724.56;;;11.38;75.61
34586;BME280;20816;50.950;11.108;2023-02-20T11:01:06;98715.69;;;11.42;74.78
34586;BME280;20816;50.950;11.108;2023-02-20T11:03:46;98721.53;;;11.55;74.78
34586;BME280;20816;50.950;11.108;2023-02-20T11:06:19;98723.25;;;11.56;75.68
34586;BME280;20816;50.950;11.108;2023-02-20T11:08:45;98712.13;;;11.44;74.85
34586;BME280;20816;50.950;11.108;2023-02-20T11:11:27;98709.34;;;11.50;74.59
34586;BME280;20816;50.950;11.108;2023-02-20T11:13:57;98710.41;;;11.79;74.88
34586;BME280;20816;50.950;11.108;2023-02-20T11:16:29;98689.50;;;11.73;73.81
34586;BME280;20816;50.950;11.108;2023-02-20T11:19:09;98698.78;;;11.88;74.12
34586;BME280;20816;50.950;11.108;2023-02-20T11:21:45;98697.75;;;11.95;73.12
34586;BME280;20816;50.950;11.108;2023-02-20T11:26:43;98684.13;;;12.12;71.73
34586;BME280;20816;50.950;11.108;2023-02-20T11:29:12;98680.22;;;12.26;72.74
34586;BME280;20816;50.950;11.108;2023-02-20T11:31:43;98674.59;;;12.07;72.04
34586;BME280;20816;50.950;11.108;2023-02-20T11:34:20;98681.50;;;12.12;72.48
34586;BME280;20816;50.950;11.108;2023-02-20T11:36:51;98682.16;;;12.20;72.38
34586;BME280;20816;50.950;11.108;2023-02-20T11:39:28;98688.03;;;12.29;72.73
34586;BME280;20816;50.950;11.108;2023-02-20T11:42:11;98680.41;;;12.51;71.86
34586;BME280;20816;50.950;11.108;2023-02-20T11:44:38;98677.66;;;12.56;71.62
34586;BME280;20816;50.950;11.108;2023-02-20T11:47:25;98678.66;;;12.50;71.93
34586;BME280;20816;50.950;11.108;2023-02-20T11:50:13;98677.63;;;12.87;70.99
34586;BME280;20816;50.950;11.108;2023-02-20T11:53:25;98668.69;;;12.91;70.65
34586;BME280;20816;50.950;11.108;2023-02-20T11:58:37;98673.16;;;12.89;69.86
34586;BME280;20816;50.950;11.108;2023-02-20T12:01:05;98648.38;;;12.93;69.38
34586;BME280;20816;50.950;11.108;2023-02-20T12:03:34;98645.56;;;12.99;68.85
34586;BME280;20816;50.950;11.108;2023-02-20T12:09:03;98622.25;;;12.85;68.85
34586;BME280;20816;50.950;11.108;2023-02-20T12:11:32;98629.13;;;12.91;69.80
34586;BME280;20816;50.950;11.108;2023-02-20T12:13:59;98619.75;;;12.81;71.31
34586;BME280;20816;50.950;11.108;2023-02-20T12:19:25;98612.56;;;12.86;71.76
34586;BME280;20816;50.950;11.108;2023-02-20T12:22:19;98608.34;;;13.08;71.68
34586;BME280;20816;50.950;11.108;2023-02-20T12:30:29;98578.78;;;13.25;71.37
34586;BME280;20816;50.950;11.108;2023-02-20T12:35:58;98571.78;;;13.51;70.14
34586;BME280;20816;50.950;11.108;2023-02-20T12:38:39;98561.22;;;13.75;69.47
34586;BME280;20816;50.950;11.108;2023-02-20T12:41:41;98562.09;;;14.01;68.85
34586;BME280;20816;50.950;11.108;2023-02-20T12:55:23;98535.66;;;13.78;70.03
34586;BME280;20816;50.950;11.108;2023-02-20T13:01:04;98540.78;;;13.31;71.57
34586;BME280;20816;50.950;11.108;2023-02-20T13:09:03;98524.06;;;14.05;71.32
34586;BME280;20816;50.950;11.108;2023-02-20T13:11:39;98511.59;;;13.85;71.09
34586;BME280;20816;50.950;11.108;2023-02-20T13:14:24;98518.59;;;13.86;70.62
34586;BME280;20816;50.950;11.108;2023-02-20T13:17:16;98506.34;;;13.60;72.00
34586;BME280;20816;50.950;11.108;2023-02-20T13:22:20;98502.31;;;13.49;72.21
34586;BME280;20816;50.950;11.108;2023-02-20T13:24:47;98518.28;;;13.70;72.05
34586;BME280;20816;50.950;11.108;2023-02-20T13:27:28;98509.41;;;13.96;71.24
34586;BME280;20816;50.950;11.108;2023-02-20T13:32:26;98504.63;;;14.06;71.46
34586;BME280;20816;50.950;11.108;2023-02-20T13:34:54;98502.09;;;13.80;72.04
34586;BME280;20816;50.950;11.108;2023-02-20T13:40:38;98514.03;;;13.90;73.26
34586;BME280;20816;50.950;11.108;2023-02-20T13:45:38;98513.84;;;14.19;72.42
34586;BME280;20816;50.950;11.108;2023-02-20T13:48:17;98518.66;;;14.08;73.18
34586;BME280;20816;50.950;11.108;2023-02-20T13:50:45;98530.84;;;14.12;72.77
34586;BME280;20816;50.950;11.108;2023-02-20T13:53:12;98530.84;;;14.12;73.80
34586;BME280;20816;50.950;11.108;2023-02-20T13:55:40;98533.38;;;14.15;73.57
34586;BME280;20816;50.950;11.108;2023-02-20T13:58:10;98526.78;;;13.79;73.40
34586;BME280;20816;50.950;11.108;2023-02-20T14:00:53;98532.28;;;13.72;74.25
34586;BME280;20816;50.950;11.108;2023-02-20T14:03:25;98536.16;;;13.87;74.23
34586;BME280;20816;50.950;11.108;2023-02-20T14:06:13;98535.31;;;13.62;75.29
34586;BME280;20816;50.950;11.108;2023-02-20T14:08:44;98529.97;;;13.63;74.94
34586;BME280;20816;50.950;11.108;2023-02-20T14:11:26;98528.94;;;13.67;75.28
34586;BME280;20816;50.950;11.108;2023-02-20T14:13:55;98528.31;;;13.86;74.81
34586;BME280;20816;50.950;11.108;2023-02-20T14:16:32;98535.25;;;13.88;74.65
34586;BME280;20816;50.950;11.108;2023-02-20T14:19:27;98525.50;;;13.65;75.56
34586;BME280;20816;50.950;11.108;2023-02-20T14:21:55;98521.19;;;13.63;75.26
34586;BME280;20816;50.950;11.108;2023-02-20T14:24:27;98531.97;;;13.82;75.43
34586;BME280;20816;50.950;11.108;2023-02-20T14:26:55;98521.56;;;14.00;74.48
34586;BME280;20816;50.950;11.108;2023-02-20T14:29:27;98543.97;;;13.90;74.61
34586;BME280;20816;50.950;11.108;2023-02-20T14:31:55;98527.22;;;13.66;75.33
34586;BME280;20816;50.950;11.108;2023-02-20T14:37:15;98534.72;;;13.79;75.87
34586;BME280;20816;50.950;11.108;2023-02-20T14:39:58;98528.94;;;13.67;75.51
34586;BME280;20816;50.950;11.108;2023-02-20T14:42:28;98523.34;;;13.77;75.64
34586;BME280;20816;50.950;11.108;2023-02-20T14:45:02;98526.28;;;13.67;75.55
34586;BME280;20816;50.950;11.108;2023-02-20T14:47:31;98531.63;;;13.66;75.52
34586;BME280;20816;50.950;11.108;2023-02-20T14:50:15;98519.81;;;13.53;76.85
34586;BME280;20816;50.950;11.108;2023-02-20T14:52:42;98528.84;;;13.45;77.01